Terminal Aerodrome Forecast
Issued by NWS Greer, SC

Home | Current Version | Previous Version | Text Only | Print | Product List | Glossary On
Versions: 1 2 3 4 5 6 7 8 9 10 11 12 13 14 15 16 17 18 19 20 21 22 23 24 25 26 27 28 29 30 31 32 33 34 35 36 37 38 39 40
000
FTUS42 KGSP 270540
TAFAVL
TAF
KAVL 270540Z 2706/2806 21003KT P6SM VCSH SCT050 OVC070
     FM270900 31008KT P6SM BKN035
     FM271500 32013KT P6SM BKN040
     FM272000 32014KT P6SM SCT250=

USA.gov is the U.S. government's official web portal to all federal, state and local government web resources and services.